createdAt,value
2019-05-25T00:02:08.697Z,73.36
2019-05-25T00:04:39.331Z,73.57
2019-05-25T00:07:06.145Z,73.23
2019-05-25T00:09:32.927Z,75.45
2019-05-25T00:11:59.892Z,75.82
2019-05-25T00:14:26.531Z,75.54
2019-05-25T00:16:53.226Z,74.06
2019-05-25T00:19:19.833Z,74.11
2019-05-25T00:21:46.729Z,73.59
2019-05-25T00:24:13.422Z,73.36
2019-05-25T00:26:40.450Z,73.53
2019-05-25T00:29:07.121Z,74.57
2019-05-25T00:31:33.904Z,73.90
2019-05-25T00:34:00.772Z,73.61
2019-05-25T00:36:27.777Z,74.58
2019-05-25T00:38:54.899Z,73.59
2019-05-25T00:41:21.585Z,73.66
2019-05-25T00:43:48.401Z,73.71
2019-05-25T00:46:16.983Z,74.48
2019-05-25T00:48:43.525Z,75.86
2019-05-25T00:51:10.294Z,76.58
2019-05-25T00:53:39.702Z,75.28
2019-05-25T00:56:06.327Z,74.46
2019-05-25T00:58:32.997Z,74.01
2019-05-25T01:01:00.044Z,73.86
2019-05-25T01:03:26.773Z,74.37
2019-05-25T01:05:53.448Z,74.06
2019-05-25T01:08:20.062Z,74.22
2019-05-25T01:10:46.754Z,74.95
2019-05-25T01:13:13.422Z,76.22
2019-05-25T01:15:40.024Z,74.79
2019-05-25T01:18:06.735Z,74.03
2019-05-25T01:20:33.501Z,73.43
2019-05-25T01:23:00.220Z,73.35
2019-05-25T01:25:27.279Z,73.35
2019-05-25T01:27:53.986Z,73.52
2019-05-25T01:30:20.921Z,75.59
2019-05-25T01:32:47.504Z,74.98
2019-05-25T01:35:14.411Z,74.89
2019-05-25T01:37:41.257Z,75.62
2019-05-25T01:40:09.326Z,76.58
2019-05-25T01:42:36.190Z,76.24
2019-05-25T01:45:05.449Z,75.46
2019-05-25T01:47:32.304Z,75.85
2019-05-25T01:49:58.886Z,75.53
2019-05-25T01:52:25.642Z,76.22
2019-05-25T01:54:59.910Z,76.39
2019-05-25T01:57:20.957Z,75.84
2019-05-25T01:59:47.622Z,75.43
2019-05-25T02:02:14.382Z,74.79
2019-05-25T02:04:41.144Z,74.66
2019-05-25T02:07:07.966Z,75.29
2019-05-25T02:09:34.618Z,74.65
2019-05-25T02:12:01.488Z,74.64
2019-05-25T02:14:28.358Z,74.30
2019-05-25T02:16:55.109Z,73.99
2019-05-25T02:19:21.999Z,73.62
2019-05-25T02:21:49.664Z,74.93
2019-05-25T02:24:16.322Z,75.01
2019-05-25T02:26:42.976Z,74.32
2019-05-25T02:29:09.895Z,74.28
2019-05-25T02:31:36.663Z,74.56
2019-05-25T02:34:03.594Z,75.96
2019-05-25T02:36:30.256Z,75.98
2019-05-25T02:38:57.073Z,74.96
2019-05-25T02:41:24.359Z,75.82
2019-05-25T02:43:50.911Z,76.33
2019-05-25T02:46:17.628Z,76.98
2019-05-25T02:48:44.504Z,76.91
2019-05-25T02:51:11.577Z,77.04
2019-05-25T02:53:38.257Z,76.21
2019-05-25T02:56:05.020Z,75.71
2019-05-25T02:58:31.588Z,76.80
2019-05-25T03:00:58.477Z,77.85
2019-05-25T03:03:25.488Z,77.26
2019-05-25T03:05:54.668Z,76.81
2019-05-25T03:08:21.630Z,76.96
2019-05-25T03:10:49.383Z,77.25
2019-05-25T03:13:16.927Z,76.33
2019-05-25T03:15:43.852Z,76.86
2019-05-25T03:18:10.400Z,77.88
2019-05-25T03:20:37.107Z,76.69
2019-05-25T03:23:03.899Z,76.38
2019-05-25T03:25:30.537Z,76.46
2019-05-25T03:27:57.115Z,75.57
2019-05-25T03:30:29.509Z,75.17
2019-05-25T03:32:56.525Z,76.51
2019-05-25T03:35:23.067Z,76.67
2019-05-25T03:37:49.678Z,76.62
2019-05-25T03:40:16.545Z,76.71
2019-05-25T03:42:43.953Z,76.88
2019-05-25T03:45:10.970Z,75.77
2019-05-25T03:47:37.648Z,76.43
2019-05-25T03:50:05.669Z,75.25
2019-05-25T03:52:32.572Z,74.82
2019-05-25T03:54:59.332Z,74.39
2019-05-25T03:57:26.635Z,74.20
2019-05-25T03:59:53.497Z,74.45
2019-05-25T04:02:20.063Z,74.88
2019-05-25T04:04:46.642Z,75.55
2019-05-25T04:07:13.273Z,76.56
2019-05-25T04:09:39.829Z,76.23
2019-05-25T04:12:07.819Z,76.03
2019-05-25T04:14:34.426Z,75.67
2019-05-25T04:17:01.112Z,76.37
2019-05-25T04:19:27.766Z,76.85
2019-05-25T04:21:54.474Z,75.88
2019-05-25T04:24:21.400Z,75.59
2019-05-25T04:26:48.108Z,75.85
2019-05-25T04:29:14.743Z,76.00
2019-05-25T04:31:41.431Z,75.41
2019-05-25T04:34:08.005Z,76.10
2019-05-25T04:36:34.648Z,74.96
2019-05-25T04:39:01.384Z,75.54
2019-05-25T04:41:28.026Z,74.68
2019-05-25T04:43:55.149Z,75.39
2019-05-25T04:46:21.846Z,74.53
2019-05-25T04:48:48.559Z,75.45
2019-05-25T04:51:15.181Z,74.25
2019-05-25T04:53:41.741Z,74.27
2019-05-25T04:56:08.396Z,72.26
2019-05-25T04:58:35.515Z,71.70
2019-05-25T05:01:04.210Z,72.67
2019-05-25T05:03:31.087Z,72.59
2019-05-25T05:05:57.783Z,72.52
2019-05-25T05:08:24.425Z,72.22
2019-05-25T05:10:51.110Z,69.71
2019-05-25T05:13:17.825Z,67.85
2019-05-25T05:15:44.376Z,67.35
2019-05-25T05:18:11.120Z,68.68
2019-05-25T05:20:37.909Z,68.74
2019-05-25T05:23:04.473Z,67.97
2019-05-25T05:25:31.261Z,68.66
2019-05-25T05:27:57.910Z,67.65
2019-05-25T05:30:30.273Z,65.81
2019-05-25T05:32:57.362Z,64.41
2019-05-25T05:35:24.450Z,64.69
2019-05-25T05:37:51.597Z,63.01
2019-05-25T05:40:18.518Z,62.38
2019-05-25T05:42:48.009Z,60.59
2019-05-25T05:45:14.914Z,59.59
2019-05-25T05:47:46.410Z,57.19
2019-05-25T05:50:13.842Z,57.58
2019-05-25T05:52:40.603Z,56.32
2019-05-25T05:55:11.088Z,56.72
2019-05-25T05:57:37.787Z,56.28
2019-05-25T06:00:09.591Z,56.74
2019-05-25T06:02:36.253Z,55.48
2019-05-25T06:05:05.058Z,54.34
2019-05-25T06:07:31.906Z,53.82
2019-05-25T06:09:58.640Z,52.34
2019-05-25T06:12:25.248Z,50.42
2019-05-25T06:14:52.188Z,50.11
2019-05-25T06:17:18.784Z,49.52
2019-05-25T06:19:45.488Z,50.02
2019-05-25T06:22:12.177Z,48.92
2019-05-25T06:24:38.863Z,49.56
2019-05-25T06:27:05.644Z,47.82
2019-05-25T06:29:32.275Z,44.98
2019-05-25T06:31:58.948Z,44.92
2019-05-25T06:34:26.777Z,46.97
2019-05-25T06:36:53.787Z,45.47
2019-05-25T06:39:20.491Z,45.81
2019-05-25T06:41:47.120Z,44.35
2019-05-25T06:44:13.974Z,43.10
2019-05-25T06:46:40.743Z,43.48
2019-05-25T06:49:07.379Z,43.91
2019-05-25T06:51:34.222Z,43.65
2019-05-25T06:54:01.168Z,40.79
2019-05-25T06:56:27.781Z,41.56
2019-05-25T06:58:58.002Z,41.38
2019-05-25T07:01:24.805Z,41.12
2019-05-25T07:03:51.591Z,40.15
2019-05-25T07:06:18.276Z,39.95
2019-05-25T07:08:44.995Z,39.30
2019-05-25T07:11:11.611Z,39.51
2019-05-25T07:13:38.330Z,39.65
2019-05-25T07:16:05.039Z,40.16
2019-05-25T07:18:35.175Z,39.03
2019-05-25T07:21:00.276Z,38.70
2019-05-25T07:23:27.084Z,38.29
2019-05-25T07:25:53.813Z,38.02
2019-05-25T07:28:20.574Z,38.71
2019-05-25T07:30:47.245Z,37.95
2019-05-25T07:33:14.195Z,38.91
2019-05-25T07:35:40.863Z,38.80
2019-05-25T07:38:07.558Z,38.37
2019-05-25T07:40:35.596Z,38.73
2019-05-25T07:43:02.381Z,38.29
2019-05-25T07:45:29.104Z,37.11
2019-05-25T07:47:55.830Z,37.23
2019-05-25T07:50:22.800Z,36.97
2019-05-25T07:52:49.399Z,37.23
2019-05-25T07:55:16.244Z,37.32
2019-05-25T07:57:42.844Z,37.18
2019-05-25T08:00:10.257Z,36.54
2019-05-25T08:02:37.176Z,36.79
2019-05-25T08:05:06.316Z,34.86
2019-05-25T08:07:32.943Z,34.86
2019-05-25T08:09:59.661Z,36.14
2019-05-25T08:12:26.403Z,35.79
2019-05-25T08:14:53.396Z,36.19
2019-05-25T08:17:20.162Z,34.86
2019-05-25T08:19:46.733Z,34.87
2019-05-25T08:22:13.305Z,35.11
2019-05-25T08:24:40.119Z,34.49
2019-05-25T08:27:07.932Z,35.08
2019-05-25T08:29:34.569Z,34.69
2019-05-25T08:32:01.497Z,35.31
2019-05-25T08:34:28.266Z,35.76
2019-05-25T08:36:55.115Z,35.36
2019-05-25T08:39:21.983Z,35.01
2019-05-25T08:41:48.582Z,35.22
2019-05-25T08:44:15.341Z,34.48
2019-05-25T08:46:42.162Z,35.27
2019-05-25T08:49:08.925Z,33.89
2019-05-25T08:51:35.654Z,35.60
2019-05-25T08:54:02.874Z,34.56
2019-05-25T08:56:29.703Z,34.55
2019-05-25T08:58:56.386Z,34.35
2019-05-25T09:01:23.131Z,35.29
2019-05-25T09:03:49.754Z,36.17
2019-05-25T09:06:16.554Z,35.63
2019-05-25T09:08:43.165Z,34.14
2019-05-25T09:11:10.068Z,35.24
2019-05-25T09:13:37.324Z,34.69
2019-05-25T09:16:04.175Z,34.87
2019-05-25T09:18:30.865Z,36.45
2019-05-25T09:20:57.618Z,34.75
2019-05-25T09:23:24.232Z,35.06
2019-05-25T09:25:51.121Z,35.81
2019-05-25T09:28:17.988Z,34.94
2019-05-25T09:30:44.637Z,35.16
2019-05-25T09:33:11.308Z,34.98
2019-05-25T09:35:37.957Z,34.78
2019-05-25T09:38:04.590Z,34.71
2019-05-25T09:40:32.289Z,35.84
2019-05-25T09:42:59.099Z,34.76
2019-05-25T09:45:25.783Z,35.57
2019-05-25T09:47:52.637Z,34.19
2019-05-25T09:50:19.439Z,35.42
2019-05-25T09:52:47.329Z,34.69
2019-05-25T09:55:15.147Z,35.01
2019-05-25T09:57:42.114Z,34.62
2019-05-25T10:00:13.216Z,34.91
2019-05-25T10:02:40.622Z,34.85
2019-05-25T10:05:09.123Z,35.58
2019-05-25T10:07:35.782Z,35.64
2019-05-25T10:10:06.018Z,35.31
2019-05-25T10:12:32.853Z,34.78
2019-05-25T10:14:59.459Z,34.73
2019-05-25T10:17:26.290Z,34.94
2019-05-25T10:19:53.233Z,35.13
2019-05-25T10:22:19.932Z,34.94
2019-05-25T10:24:46.634Z,35.19
2019-05-25T10:27:13.236Z,35.40
2019-05-25T10:29:39.822Z,35.67
2019-05-25T10:32:06.380Z,36.20
2019-05-25T10:34:33.160Z,35.68
2019-05-25T10:36:59.922Z,35.81
2019-05-25T10:39:26.881Z,35.58
2019-05-25T10:41:53.577Z,35.73
2019-05-25T10:44:20.320Z,35.39
2019-05-25T10:46:47.201Z,36.06
2019-05-25T10:49:13.799Z,36.13
2019-05-25T10:51:40.714Z,35.33
2019-05-25T10:54:07.347Z,34.90
2019-05-25T10:56:34.044Z,34.31
2019-05-25T10:59:02.736Z,34.20
2019-05-25T11:01:29.527Z,34.61
2019-05-25T11:03:56.092Z,34.60
2019-05-25T11:06:22.662Z,35.52
2019-05-25T11:08:49.315Z,35.26
2019-05-25T11:11:15.906Z,34.58
2019-05-25T11:13:42.645Z,34.70
2019-05-25T11:16:09.434Z,34.33
2019-05-25T11:18:37.207Z,32.39
2019-05-25T11:21:03.841Z,32.87
2019-05-25T11:23:30.680Z,33.08
2019-05-25T11:25:57.412Z,33.41
2019-05-25T11:28:24.365Z,32.97
2019-05-25T11:30:51.055Z,33.44
2019-05-25T11:33:17.802Z,33.88
2019-05-25T11:35:44.446Z,33.51
2019-05-25T11:38:11.506Z,31.66
2019-05-25T11:40:38.362Z,32.62
2019-05-25T11:43:08.235Z,33.14
2019-05-25T11:45:34.961Z,32.85
2019-05-25T11:48:01.722Z,32.73
2019-05-25T11:50:28.735Z,32.82
2019-05-25T11:52:59.275Z,31.81
2019-05-25T11:55:26.244Z,32.76
2019-05-25T11:57:52.859Z,31.15
2019-05-25T12:00:25.252Z,30.94
2019-05-25T12:02:55.242Z,30.83
2019-05-25T12:05:23.912Z,32.31
2019-05-25T12:07:51.846Z,33.12
2019-05-25T12:10:20.573Z,32.25
2019-05-25T12:12:47.298Z,32.35
2019-05-25T12:15:15.560Z,32.23
2019-05-25T12:18:39.536Z,33.02
2019-05-25T12:21:06.398Z,33.33
2019-05-25T12:23:33.139Z,34.04
2019-05-25T12:25:59.755Z,31.77
2019-05-25T12:28:26.569Z,30.34
2019-05-25T12:30:53.204Z,31.44
2019-05-25T12:33:20.124Z,31.00
2019-05-25T12:35:46.799Z,31.70
2019-05-25T12:38:13.578Z,30.52
2019-05-25T12:40:53.220Z,31.04
2019-05-25T12:43:10.431Z,30.86
2019-05-25T12:45:37.225Z,30.89
2019-05-25T12:48:06.707Z,30.57
2019-05-25T12:50:34.419Z,31.27
2019-05-25T12:53:01.250Z,30.08
2019-05-25T12:55:28.161Z,31.21
2019-05-25T12:57:55.013Z,30.87
2019-05-25T13:00:22.496Z,32.49
2019-05-25T13:02:49.206Z,31.61
2019-05-25T13:05:16.093Z,31.19
2019-05-25T13:07:42.779Z,31.96
2019-05-25T13:10:09.883Z,31.79
2019-05-25T13:12:36.908Z,32.16
2019-05-25T13:15:05.685Z,32.21
2019-05-25T13:17:32.333Z,32.66
2019-05-25T13:19:59.051Z,31.50
2019-05-25T13:22:25.890Z,32.23
2019-05-25T13:24:52.914Z,33.13
2019-05-25T13:27:19.702Z,34.16
2019-05-25T13:29:46.662Z,33.84
2019-05-25T13:32:13.324Z,34.80
2019-05-25T13:34:41.130Z,34.44
2019-05-25T13:37:07.682Z,35.03
2019-05-25T13:40:11.766Z,34.15
2019-05-25T13:42:38.475Z,34.38
2019-05-25T13:45:07.975Z,35.93
2019-05-25T13:47:35.008Z,36.05
2019-05-25T13:50:07.004Z,36.79
2019-05-25T13:52:33.648Z,36.75
2019-05-25T13:55:00.265Z,36.30
2019-05-25T13:57:26.969Z,36.25
2019-05-25T13:59:53.868Z,36.45
2019-05-25T14:02:20.426Z,36.40
2019-05-25T14:04:47.176Z,36.35
2019-05-25T14:07:13.879Z,36.20
2019-05-25T14:09:40.691Z,36.62
2019-05-25T14:12:07.536Z,36.47
2019-05-25T14:14:34.153Z,35.53
2019-05-25T14:17:01.062Z,35.14
2019-05-25T14:19:28.043Z,35.23
2019-05-25T14:21:54.748Z,35.93
2019-05-25T14:24:21.464Z,34.33
2019-05-25T14:27:44.583Z,33.13
2019-05-25T14:30:12.448Z,33.49
2019-05-25T14:32:39.153Z,32.31
2019-05-25T14:35:06.642Z,32.58
2019-05-25T14:37:33.770Z,32.47
2019-05-25T14:40:00.461Z,33.16
2019-05-25T14:42:27.312Z,32.94
2019-05-25T14:44:55.155Z,33.12
2019-05-25T14:47:22.156Z,32.61
2019-05-25T14:49:48.706Z,33.43
2019-05-25T14:52:15.809Z,32.74
2019-05-25T14:54:42.422Z,32.52
2019-05-25T14:57:09.174Z,32.50
2019-05-25T14:59:35.884Z,32.17
2019-05-25T15:02:03.939Z,31.69
2019-05-25T15:04:31.038Z,30.78
2019-05-25T15:06:57.993Z,31.37
2019-05-25T15:09:24.823Z,31.45
2019-05-25T15:11:54.050Z,31.22
2019-05-25T15:14:20.046Z,31.00
2019-05-25T15:16:46.887Z,30.58
2019-05-25T15:19:14.196Z,31.61
2019-05-25T15:21:42.490Z,31.37
2019-05-25T15:24:09.243Z,31.16
2019-05-25T15:26:35.988Z,30.59
2019-05-25T15:29:02.895Z,31.06
2019-05-25T15:31:29.830Z,31.00
2019-05-25T15:33:56.707Z,30.32
2019-05-25T15:36:23.493Z,30.17
2019-05-25T15:38:50.108Z,31.02
2019-05-25T15:41:17.034Z,31.61
2019-05-25T15:43:43.889Z,31.14
2019-05-25T15:46:10.747Z,30.85
2019-05-25T15:48:37.471Z,31.00
2019-05-25T15:51:05.980Z,30.79
2019-05-25T15:53:33.724Z,30.65
2019-05-25T15:56:00.308Z,30.62
2019-05-25T15:58:27.218Z,30.82
2019-05-25T16:00:54.149Z,31.27
2019-05-25T16:03:21.148Z,31.21
2019-05-25T16:05:49.348Z,30.53
2019-05-25T16:08:20.095Z,30.39
2019-05-25T16:10:47.495Z,30.95
2019-05-25T16:13:16.094Z,30.86
2019-05-25T16:15:42.923Z,30.86
2019-05-25T16:18:09.881Z,31.69
2019-05-25T16:20:36.561Z,31.59
2019-05-25T16:23:03.465Z,31.21
2019-05-25T16:25:30.452Z,32.40
2019-05-25T16:27:57.149Z,32.10
2019-05-25T16:30:24.100Z,31.63
2019-05-25T16:35:20.379Z,31.71
2019-05-25T16:37:47.571Z,30.66
2019-05-25T16:40:15.625Z,31.17
2019-05-25T16:42:42.412Z,31.84
2019-05-25T16:45:09.505Z,31.60
2019-05-25T16:47:38.949Z,31.40
2019-05-25T16:50:09.450Z,31.79
2019-05-25T16:52:36.215Z,32.12
2019-05-25T16:55:05.626Z,32.86
2019-05-25T16:57:32.333Z,33.35
2019-05-25T16:59:59.060Z,34.27
2019-05-25T17:02:25.659Z,33.91
2019-05-25T17:04:53.861Z,34.47
2019-05-25T17:07:20.399Z,34.45
2019-05-25T17:09:46.971Z,36.16
2019-05-25T17:12:13.495Z,38.06
2019-05-25T17:14:40.294Z,36.76
2019-05-25T17:17:07.049Z,38.29
2019-05-25T17:19:35.264Z,38.43
2019-05-25T17:22:02.370Z,39.16
2019-05-25T17:24:29.074Z,39.99
2019-05-25T17:26:57.350Z,40.69
2019-05-25T17:29:24.036Z,41.37
2019-05-25T17:31:50.656Z,40.75
2019-05-25T17:34:19.093Z,42.75
2019-05-25T17:36:45.810Z,41.82
2019-05-25T17:39:12.691Z,41.68
2019-05-25T17:41:40.053Z,44.22
2019-05-25T17:44:07.071Z,42.79
2019-05-25T17:46:33.787Z,41.70
2019-05-25T17:49:00.497Z,41.85
2019-05-25T17:51:27.252Z,42.55
2019-05-25T17:53:54.140Z,42.00
2019-05-25T17:56:20.840Z,42.25
2019-05-25T17:58:47.623Z,44.47
2019-05-25T18:01:15.960Z,43.54
2019-05-25T18:03:43.174Z,44.13
2019-05-25T18:06:10.032Z,43.89
2019-05-25T18:08:36.746Z,44.55
2019-05-25T18:11:03.978Z,44.46
2019-05-25T18:13:30.790Z,45.32
2019-05-25T18:15:58.061Z,45.48
2019-05-25T18:18:24.721Z,47.24
2019-05-25T18:20:51.446Z,47.47
2019-05-25T18:23:18.469Z,46.90
2019-05-25T18:25:45.416Z,47.65
2019-05-25T18:28:12.137Z,48.25
2019-05-25T18:30:38.754Z,48.97
2019-05-25T18:33:05.332Z,48.16
2019-05-25T18:35:31.996Z,47.48
2019-05-25T18:37:58.706Z,47.58
2019-05-25T18:40:25.526Z,46.64
2019-05-25T18:42:52.555Z,46.92
2019-05-25T18:45:19.438Z,47.95
2019-05-25T18:47:46.006Z,48.30
2019-05-25T18:50:13.557Z,48.16
2019-05-25T18:52:44.973Z,47.69
2019-05-25T18:55:15.479Z,47.75
2019-05-25T18:57:42.302Z,48.42
2019-05-25T19:00:10.089Z,47.86
2019-05-25T19:02:37.172Z,47.63
2019-05-25T19:05:06.275Z,50.42
2019-05-25T19:07:33.269Z,50.44
2019-05-25T19:10:00.102Z,49.98
2019-05-25T19:12:29.270Z,49.44
2019-05-25T19:14:55.867Z,49.87
2019-05-25T19:17:22.636Z,50.90
2019-05-25T19:19:49.730Z,51.55
2019-05-25T19:22:16.550Z,51.15
2019-05-25T19:24:44.263Z,50.16
2019-05-25T19:27:13.637Z,50.27
2019-05-25T19:29:42.368Z,50.37
2019-05-25T19:32:09.343Z,51.01
2019-05-25T19:34:36.390Z,51.26
2019-05-25T19:37:07.562Z,54.85
2019-05-25T19:39:37.633Z,53.22
2019-05-25T19:42:04.745Z,54.17
2019-05-25T19:44:32.294Z,54.67
2019-05-25T19:46:59.154Z,54.29
2019-05-25T19:49:27.048Z,54.77
2019-05-25T19:51:54.612Z,55.58
2019-05-25T19:54:22.435Z,56.10
2019-05-25T19:56:49.296Z,56.27
2019-05-25T19:59:16.093Z,56.31
2019-05-25T20:01:43.104Z,56.54
2019-05-25T20:04:10.022Z,57.70
2019-05-25T20:06:45.891Z,58.33
2019-05-25T20:09:16.172Z,57.31
2019-05-25T20:11:43.424Z,57.55
2019-05-25T20:14:10.306Z,56.64
2019-05-25T20:16:38.533Z,56.61
2019-05-25T20:19:06.119Z,57.61
2019-05-25T20:21:35.920Z,57.81
2019-05-25T20:24:03.396Z,58.51
2019-05-25T20:26:31.115Z,59.61
2019-05-25T20:28:58.197Z,59.33
2019-05-25T20:31:25.595Z,59.78
2019-05-25T20:33:53.185Z,59.11
2019-05-25T20:36:19.899Z,59.93
2019-05-25T20:38:47.178Z,59.61
2019-05-25T20:41:14.284Z,59.53
2019-05-25T20:43:41.646Z,60.32
2019-05-25T20:46:08.212Z,60.13
2019-05-25T20:48:35.099Z,59.75
2019-05-25T20:51:03.096Z,60.12
2019-05-25T20:53:30.269Z,60.88
2019-05-25T20:55:57.748Z,59.63
2019-05-25T20:58:24.630Z,61.73
2019-05-25T21:00:52.714Z,61.56
2019-05-25T21:03:20.250Z,61.22
2019-05-25T21:05:55.646Z,62.58
2019-05-25T21:08:29.897Z,63.01
2019-05-25T21:10:57.025Z,62.82
2019-05-25T21:13:23.734Z,63.63
2019-05-25T21:15:50.536Z,64.32
2019-05-25T21:18:17.128Z,64.46
2019-05-25T21:20:43.966Z,65.24
2019-05-25T21:23:11.198Z,63.98
2019-05-25T21:25:38.384Z,63.53
2019-05-25T21:28:04.989Z,63.14
2019-05-25T21:30:31.731Z,63.54
2019-05-25T21:32:58.404Z,64.61
2019-05-25T21:35:25.411Z,63.34
2019-05-25T21:37:53.495Z,63.37
2019-05-25T21:40:20.760Z,64.13
2019-05-25T21:42:50.400Z,65.11
2019-05-25T21:45:17.775Z,64.09
2019-05-25T21:47:44.435Z,63.77
2019-05-25T21:50:13.152Z,64.36
2019-05-25T21:52:39.900Z,64.61
2019-05-25T21:55:07.914Z,65.17
2019-05-25T21:57:34.826Z,65.60
2019-05-25T22:00:03.072Z,64.70
2019-05-25T22:02:30.293Z,65.20
2019-05-25T22:04:57.010Z,64.58
2019-05-25T22:07:23.594Z,64.88
2019-05-25T22:09:50.328Z,65.29
2019-05-25T22:12:17.014Z,65.54
2019-05-25T22:14:43.725Z,65.84
2019-05-25T22:17:10.559Z,67.95
2019-05-25T22:19:39.538Z,68.66
2019-05-25T22:22:06.246Z,69.37
2019-05-25T22:24:32.830Z,67.24
2019-05-25T22:26:59.558Z,67.69
2019-05-25T22:29:26.343Z,67.70
2019-05-25T22:31:53.221Z,66.89
2019-05-25T22:34:19.813Z,67.14
2019-05-25T22:36:46.469Z,66.52
2019-05-25T22:39:13.173Z,66.56
2019-05-25T22:41:40.018Z,66.56
2019-05-25T22:44:06.646Z,67.81
2019-05-25T22:46:33.598Z,67.68
2019-05-25T22:49:00.665Z,66.87
2019-05-25T22:51:27.626Z,67.51
2019-05-25T22:53:54.541Z,68.42
2019-05-25T22:56:21.223Z,68.48
2019-05-25T22:58:48.001Z,69.63
2019-05-25T23:01:14.642Z,69.22
2019-05-25T23:03:41.346Z,67.46
2019-05-25T23:06:07.916Z,67.37
2019-05-25T23:08:34.509Z,68.54
2019-05-25T23:11:01.357Z,68.51
2019-05-25T23:13:31.502Z,67.80
2019-05-25T23:15:58.263Z,67.97
2019-05-25T23:18:24.902Z,68.74
2019-05-25T23:20:51.491Z,68.74
2019-05-25T23:23:18.421Z,68.70
2019-05-25T23:25:44.973Z,68.13
2019-05-25T23:28:11.574Z,68.19
2019-05-25T23:30:39.492Z,71.17
2019-05-25T23:33:06.416Z,70.20
2019-05-25T23:35:33.173Z,70.00
2019-05-25T23:38:03.339Z,69.33
2019-05-25T23:40:28.552Z,69.03
2019-05-25T23:42:55.329Z,68.06
2019-05-25T23:45:22.105Z,68.19
2019-05-25T23:47:48.649Z,68.86
2019-05-25T23:50:16.407Z,69.71
2019-05-25T23:52:43.137Z,69.33
2019-05-25T23:55:11.140Z,69.67
2019-05-25T23:57:39.613Z,69.01
